Time;durP1;ratioP1;P1;durP2;ratioP2;P2;SDS_P1;SDS_P2;PMS_P1;PMS_P2;Temp;Humidity;BMP_temperature;BMP_pressure;BME280_temperature;BME280_humidity;BME280_pressure;Samples;Min_cycle;Max_cycle;Signal;HPM_P1;HPM_P2
2021/08/21 00:02:05;;;;;;;4.28;3.20;;;;;;;15.30;80.53;99852.56;4982871;28;20522;-65
2021/08/21 00:04:31;;;;;;;6.55;3.13;;;;;;;15.26;80.72;99859.91;4990196;28;20475;-66
2021/08/21 00:06:56;;;;;;;11.30;3.78;;;;;;;15.24;80.60;99860.00;4990645;28;20038;-65
2021/08/21 00:09:21;;;;;;;10.57;3.47;;;;;;;15.23;80.93;99853.00;5000694;28;20109;-67
2021/08/21 00:11:47;;;;;;;4.88;2.90;;;;;;;15.21;80.91;99852.25;4991735;28;20574;-66
2021/08/21 00:14:12;;;;;;;5.32;3.60;;;;;;;15.17;80.88;99858.72;5010345;28;20042;-65
2021/08/21 00:16:38;;;;;;;5.63;3.47;;;;;;;15.16;80.79;99854.38;5008834;28;20520;-65
2021/08/21 00:19:04;;;;;;;6.50;3.58;;;;;;;15.13;80.92;99859.00;5010099;28;20034;-65
2021/08/21 00:21:29;;;;;;;4.63;3.28;;;;;;;15.10;80.93;99854.75;5006613;28;20064;-66
2021/08/21 00:23:55;;;;;;;6.63;2.97;;;;;;;15.07;81.00;99862.09;5018705;28;20030;-66
2021/08/21 00:26:23;;;;;;;5.28;3.28;;;;;;;15.04;81.28;99852.53;5007293;28;20065;-66
2021/08/21 00:28:49;;;;;;;6.70;3.45;;;;;;;15.03;81.13;99853.47;5009286;28;20065;-65
2021/08/21 00:31:14;;;;;;;7.40;4.10;;;;;;;15.03;81.02;99854.31;5009386;28;20141;-66
2021/08/21 00:33:40;;;;;;;5.55;3.95;;;;;;;15.00;80.91;99851.88;5010450;28;20541;-67
2021/08/21 00:36:05;;;;;;;6.72;3.15;;;;;;;15.02;81.00;99851.78;5009977;28;20033;-65
2021/08/21 00:38:31;;;;;;;5.15;3.80;;;;;;;15.01;80.89;99850.94;5005470;28;20034;-66
2021/08/21 00:40:56;;;;;;;6.57;3.60;;;;;;;15.00;81.03;99843.91;5006603;28;20038;-66
2021/08/21 00:43:22;;;;;;;4.88;3.40;;;;;;;14.97;80.84;99846.78;5009416;28;20037;-65
2021/08/21 00:45:47;;;;;;;6.90;3.95;;;;;;;14.94;81.14;99844.31;5008933;28;20068;-65
2021/08/21 00:48:13;;;;;;;7.32;3.95;;;;;;;14.96;81.19;99846.84;5007222;28;20034;-66
2021/08/21 00:50:39;;;;;;;5.35;3.67;;;;;;;14.95;80.68;99845.16;5007727;28;20049;-66
2021/08/21 00:53:05;;;;;;;7.30;3.80;;;;;;;14.92;81.11;99837.41;5016102;28;20127;-66
2021/08/21 00:55:30;;;;;;;5.65;3.67;;;;;;;14.91;80.74;99835.69;5009160;28;21444;-65
2021/08/21 00:57:55;;;;;;;7.85;3.80;;;;;;;14.85;80.91;99838.78;5007808;28;20121;-66
2021/08/21 01:00:22;;;;;;;5.18;3.78;;;;;;;14.79;81.41;99840.88;5009161;28;20050;-66
2021/08/21 01:02:47;;;;;;;6.55;3.95;;;;;;;14.75;81.25;99835.88;4984559;28;20060;-67
2021/08/21 01:05:15;;;;;;;5.18;3.22;;;;;;;14.75;81.33;99834.06;5009535;28;20053;-66
2021/08/21 01:07:41;;;;;;;6.05;3.45;;;;;;;14.76;81.57;99837.56;5008534;28;20042;-65
2021/08/21 01:10:13;;;;;;;5.32;3.63;;;;;;;14.78;81.20;99841.81;5008994;28;20045;-66
2021/08/21 01:12:40;;;;;;;4.68;3.45;;;;;;;14.78;81.06;99840.97;5009413;28;20398;-66
2021/08/21 01:15:07;;;;;;;4.28;3.15;;;;;;;14.75;81.23;99842.03;5009074;28;20061;-66
2021/08/21 01:17:34;;;;;;;5.53;3.88;;;;;;;14.73;80.94;99841.28;5008622;28;20096;-66
2021/08/21 01:19:59;;;;;;;6.45;4.10;;;;;;;14.72;81.25;99839.56;5008681;28;20440;-66
2021/08/21 01:22:28;;;;;;;5.82;4.00;;;;;;;14.71;81.34;99840.50;5009244;28;20133;-67
2021/08/21 01:24:58;;;;;;;7.38;4.15;;;;;;;14.69;81.47;99837.09;5009826;28;20041;-66
2021/08/21 01:27:24;;;;;;;5.43;4.07;;;;;;;14.66;81.13;99836.47;5009931;28;20038;-66
2021/08/21 01:29:51;;;;;;;6.03;4.15;;;;;;;14.59;81.34;99836.00;5009226;28;20665;-66
2021/08/21 01:32:18;;;;;;;5.35;3.80;;;;;;;14.52;81.69;99834.66;5008748;28;20034;-66
2021/08/21 01:34:44;;;;;;;7.25;3.90;;;;;;;14.45;81.82;99826.28;4995631;28;20109;-67
2021/08/21 01:37:10;;;;;;;8.98;5.03;;;;;;;14.46;81.58;99827.13;4988909;28;20162;-66
2021/08/21 01:39:35;;;;;;;8.82;3.97;;;;;;;14.45;81.54;99828.06;4988882;28;20101;-66
2021/08/21 01:42:02;;;;;;;5.72;4.22;;;;;;;14.41;81.29;99823.91;4989359;28;20034;-66
2021/08/21 01:44:27;;;;;;;5.00;4.18;;;;;;;14.36;81.33;99822.41;4994530;28;20105;-66
2021/08/21 01:46:53;;;;;;;6.50;3.95;;;;;;;14.35;81.49;99819.88;5007801;28;20103;-67
2021/08/21 01:49:22;;;;;;;9.57;4.43;;;;;;;14.33;81.47;99819.94;5007609;28;20054;-66
2021/08/21 01:51:49;;;;;;;8.75;4.03;;;;;;;14.30;81.82;99819.28;5008940;28;20113;-66
2021/08/21 01:54:19;;;;;;;4.97;4.03;;;;;;;14.29;81.72;99825.56;5008713;28;20040;-67
2021/08/21 01:56:49;;;;;;;7.35;4.07;;;;;;;14.29;81.92;99823.75;5008360;28;20026;-67
2021/08/21 01:59:34;;;;;;;6.93;3.38;;;;;;;14.33;81.77;99822.59;5008632;28;20033;-67
2021/08/21 02:02:01;;;;;;;6.18;3.60;;;;;;;14.33;81.33;99821.75;5008491;28;20030;-65
2021/08/21 02:04:27;;;;;;;6.18;3.90;;;;;;;14.33;81.79;99822.59;5008705;28;20095;-65
2021/08/21 02:06:53;;;;;;;7.40;3.58;;;;;;;14.35;81.46;99819.88;5008099;28;20482;-65
2021/08/21 02:09:21;;;;;;;6.38;3.90;;;;;;;14.36;81.45;99822.41;5012506;28;20435;-65
2021/08/21 02:11:48;;;;;;;8.57;4.03;;;;;;;14.37;81.50;99816.16;5010752;28;20490;-65
2021/08/21 02:14:15;;;;;;;5.20;3.40;;;;;;;14.36;81.41;99817.09;5012346;28;20135;-66
2021/08/21 02:16:41;;;;;;;5.07;3.20;;;;;;;14.37;81.54;99817.94;5011250;28;20789;-65
2021/08/21 02:19:06;;;;;;;9.40;3.28;;;;;;;14.39;81.51;99816.03;5011861;28;20034;-65
2021/08/21 02:21:32;;;;;;;5.93;4.07;;;;;;;14.39;81.15;99811.59;5012250;28;20119;-65
2021/08/21 02:23:58;;;;;;;6.57;3.83;;;;;;;14.41;81.09;99810.66;5011945;28;20026;-65
2021/08/21 02:26:28;;;;;;;5.10;3.40;;;;;;;14.39;81.06;99811.59;5011519;28;20125;-65
2021/08/21 02:28:54;;;;;;;7.10;3.75;;;;;;;14.42;80.87;99809.69;5011452;28;20034;-67
2021/08/21 02:31:21;;;;;;;5.90;3.50;;;;;;;14.43;80.60;99814.06;5012016;28;20042;-66
2021/08/21 02:33:46;;;;;;;5.13;3.80;;;;;;;14.39;80.83;99816.88;5011594;28;20044;-65
2021/08/21 02:36:13;;;;;;;6.30;3.83;;;;;;;14.37;81.25;99815.28;5011790;28;20038;-66
2021/08/21 02:38:39;;;;;;;6.15;4.70;;;;;;;14.34;80.93;99818.16;5009725;28;20065;-66
2021/08/21 02:41:04;;;;;;;7.72;3.75;;;;;;;14.30;81.30;99811.31;5010936;28;20038;-66
2021/08/21 02:43:30;;;;;;;7.47;3.40;;;;;;;14.29;81.12;99829.03;5011147;28;20465;-67
2021/08/21 02:45:55;;;;;;;7.90;4.53;;;;;;;14.30;81.01;99817.50;5011336;28;20034;-66
2021/08/21 02:48:20;;;;;;;5.40;3.50;;;;;;;14.30;80.87;99814.84;5010933;28;20045;-66
2021/08/21 02:50:46;;;;;;;5.93;3.85;;;;;;;14.30;80.81;99816.63;5011550;28;20036;-66
2021/08/21 02:53:11;;;;;;;5.97;3.80;;;;;;;14.29;81.25;99817.59;5011606;28;20127;-66
2021/08/21 02:55:37;;;;;;;8.18;3.97;;;;;;;14.26;80.82;99817.78;5011556;28;20133;-66
2021/08/21 02:58:02;;;;;;;8.52;4.28;;;;;;;14.24;80.85;99817.03;4993038;28;20054;-66
2021/08/21 03:00:27;;;;;;;6.65;4.45;;;;;;;14.18;80.78;99810.34;5011451;28;20045;-66
2021/08/21 03:02:53;;;;;;;9.43;4.25;;;;;;;14.17;81.41;99813.91;5011033;28;20038;-66
2021/08/21 03:05:18;;;;;;;7.65;3.33;;;;;;;14.18;80.84;99816.47;5011554;28;20034;-66
2021/08/21 03:07:43;;;;;;;7.88;4.63;;;;;;;14.18;80.85;99820.94;5010608;28;20049;-66
2021/08/21 03:10:09;;;;;;;6.18;3.38;;;;;;;14.16;80.96;99814.88;5010869;28;20125;-65
2021/08/21 03:12:35;;;;;;;5.40;3.25;;;;;;;14.15;81.24;99818.47;5011125;28;20096;-65
2021/08/21 03:15:01;;;;;;;5.07;3.78;;;;;;;14.12;81.06;99816.84;5010985;28;20478;-65
2021/08/21 03:17:26;;;;;;;6.72;3.60;;;;;;;14.07;81.21;99823.41;5010075;28;20100;-66
2021/08/21 03:19:52;;;;;;;6.22;3.92;;;;;;;14.00;81.63;99817.63;5010825;28;20038;-66
2021/08/21 03:22:18;;;;;;;5.90;3.80;;;;;;;13.98;81.36;99822.22;5010898;28;20088;-66
2021/08/21 03:24:43;;;;;;;11.02;4.40;;;;;;;13.96;81.50;99817.00;5010692;28;20041;-66
2021/08/21 03:27:09;;;;;;;6.88;3.97;;;;;;;13.95;81.50;99819.72;5009749;28;20049;-66
2021/08/21 03:29:34;;;;;;;8.25;4.07;;;;;;;13.94;81.74;99821.53;5010481;28;20046;-66
2021/08/21 03:32:00;;;;;;;11.30;4.47;;;;;;;13.95;82.00;99817.06;5010483;28;20069;-66
2021/08/21 03:34:25;;;;;;;7.07;4.82;;;;;;;13.93;81.50;99825.13;5010443;28;20041;-66
2021/08/21 03:36:51;;;;;;;9.82;4.00;;;;;;;13.95;81.65;99817.94;5010558;28;20049;-66
2021/08/21 03:39:17;;;;;;;4.70;3.25;;;;;;;13.99;81.42;99815.94;5008164;28;20034;-66
2021/08/21 03:41:42;;;;;;;5.38;3.55;;;;;;;14.02;81.26;99817.53;5009602;28;20471;-68
2021/08/21 03:44:08;;;;;;;7.63;3.60;;;;;;;14.03;81.11;99820.13;5010125;28;20030;-66
2021/08/21 03:46:33;;;;;;;6.15;4.05;;;;;;;13.96;80.89;99811.69;5009606;28;20048;-66
2021/08/21 03:48:58;;;;;;;6.95;4.47;;;;;;;13.92;81.01;99810.16;5010065;28;20034;-66
2021/08/21 03:51:24;;;;;;;8.30;4.18;;;;;;;13.91;81.13;99811.13;5010482;28;20072;-65
2021/08/21 03:53:49;;;;;;;5.88;4.03;;;;;;;13.89;81.81;99810.38;5010905;28;20077;-66
2021/08/21 03:56:14;;;;;;;4.60;3.92;;;;;;;13.88;81.76;99803.38;5010441;28;20096;-66
2021/08/21 03:58:40;;;;;;;9.90;4.55;;;;;;;13.83;82.02;99797.50;5009898;28;20555;-66
2021/08/21 04:01:05;;;;;;;6.78;3.38;;;;;;;13.84;81.60;99799.19;5010479;28;20030;-66
2021/08/21 04:03:30;;;;;;;5.03;3.85;;;;;;;13.86;81.52;99805.25;5009868;28;20042;-66
2021/08/21 04:05:56;;;;;;;10.70;3.42;;;;;;;13.90;81.42;99809.41;5009998;28;20490;-66
2021/08/21 04:08:21;;;;;;;6.70;3.25;;;;;;;13.93;81.23;99806.59;5009535;28;20041;-66
2021/08/21 04:10:46;;;;;;;5.57;3.10;;;;;;;13.96;81.42;99800.25;5010028;28;20030;-66
2021/08/21 04:13:11;;;;;;;4.28;3.38;;;;;;;13.98;81.24;99798.34;5010064;28;20037;-66
2021/08/21 04:15:37;;;;;;;7.43;2.78;;;;;;;13.96;81.15;99798.44;5009849;28;20038;-66
2021/08/21 04:18:02;;;;;;;4.85;2.78;;;;;;;13.93;81.13;99797.75;5009129;28;20531;-67
2021/08/21 04:20:28;;;;;;;5.85;2.90;;;;;;;13.91;81.25;99800.53;5009549;28;20526;-66
2021/08/21 04:22:53;;;;;;;6.55;3.65;;;;;;;13.89;81.25;99798.91;5009997;28;20040;-66
2021/08/21 04:25:18;;;;;;;5.90;3.22;;;;;;;13.88;81.39;99789.25;5010092;28;20045;-66
2021/08/21 04:27:44;;;;;;;7.40;3.38;;;;;;;13.85;81.23;99792.09;5008742;28;20045;-66
2021/08/21 04:30:10;;;;;;;5.68;3.35;;;;;;;13.85;81.86;99789.44;5007634;28;20057;-67
2021/08/21 04:32:35;;;;;;;5.28;3.13;;;;;;;13.85;81.46;99792.09;5009539;28;20045;-67
2021/08/21 04:35:01;;;;;;;4.38;3.17;;;;;;;13.83;81.96;99792.22;5009481;28;20042;-67
2021/08/21 04:37:26;;;;;;;5.25;3.28;;;;;;;13.84;82.06;99796.56;5008890;28;20092;-67
2021/08/21 04:39:52;;;;;;;11.05;3.05;;;;;;;13.83;81.90;99786.03;5008562;28;20453;-67
2021/08/21 04:42:17;;;;;;;5.93;3.53;;;;;;;13.82;82.02;99781.69;5009523;28;20442;-67
2021/08/21 04:44:43;;;;;;;4.72;3.30;;;;;;;13.84;81.63;99785.09;5009482;28;20136;-66
2021/08/21 04:47:08;;;;;;;6.18;3.90;;;;;;;13.83;81.56;99784.25;5008936;28;20107;-67
2021/08/21 04:49:45;;;;;;;4.65;3.22;;;;;;;13.84;81.66;99793.06;5009025;28;20046;-66
2021/08/21 04:52:11;;;;;;;6.28;3.70;;;;;;;13.88;81.90;99789.25;5009340;28;20030;-65
2021/08/21 04:54:36;;;;;;;8.93;3.30;;;;;;;13.88;81.79;99798.06;5009340;28;20042;-66
2021/08/21 04:57:02;;;;;;;5.53;3.10;;;;;;;13.89;81.55;99790.97;5006987;28;20037;-67
2021/08/21 04:59:27;;;;;;;6.70;3.33;;;;;;;13.87;82.07;99804.31;5008800;28;20498;-66
2021/08/21 05:01:52;;;;;;;4.60;3.28;;;;;;;13.92;81.83;99798.72;5009698;28;20030;-66
2021/08/21 05:04:18;;;;;;;6.65;3.90;;;;;;;13.94;81.52;99810.09;5009092;28;20108;-67
2021/08/21 05:06:43;;;;;;;18.73;4.25;;;;;;;13.95;81.51;99806.47;5008648;28;20458;-66
2021/08/21 05:09:08;;;;;;;4.88;3.35;;;;;;;13.97;81.53;99804.59;5009417;28;20551;-67
2021/08/21 05:11:34;;;;;;;4.43;3.35;;;;;;;13.99;81.80;99805.34;5009560;28;20049;-66
2021/08/21 05:13:59;;;;;;;4.47;3.20;;;;;;;13.99;81.63;99805.34;5008176;28;20056;-66
2021/08/21 05:16:24;;;;;;;4.28;3.20;;;;;;;14.00;81.49;99807.03;5008884;28;20433;-67
2021/08/21 05:18:57;;;;;;;6.53;4.07;;;;;;;14.02;81.81;99812.25;5008884;28;20421;-66
2021/08/21 05:21:31;;;;;;;6.18;3.90;;;;;;;14.01;81.56;99811.41;5008758;28;20117;-66
2021/08/21 05:23:57;;;;;;;4.45;3.42;;;;;;;14.01;81.49;99814.06;4983517;28;20205;-67
2021/08/21 05:26:23;;;;;;;5.00;3.38;;;;;;;14.01;81.94;99815.84;5002765;28;20117;-66
2021/08/21 05:28:49;;;;;;;5.47;2.78;;;;;;;14.00;82.07;99814.13;4997643;28;20046;-66
2021/08/21 05:31:14;;;;;;;8.30;3.10;;;;;;;14.00;81.52;99814.97;5003432;28;20029;-65
2021/08/21 05:33:40;;;;;;;5.97;3.85;;;;;;;14.02;81.65;99799.00;4997568;28;20045;-66
2021/08/21 05:36:05;;;;;;;6.38;3.65;;;;;;;14.04;81.66;99811.19;4989339;28;20026;-65
2021/08/21 05:38:31;;;;;;;6.32;3.17;;;;;;;14.06;81.53;99808.47;4991170;28;20050;-65
2021/08/21 05:40:56;;;;;;;9.55;3.25;;;;;;;14.06;82.11;99819.91;5001496;28;20402;-65
2021/08/21 05:43:22;;;;;;;4.28;3.10;;;;;;;14.06;81.88;99811.97;5012768;28;20394;-66
2021/08/21 05:45:47;;;;;;;8.10;3.75;;;;;;;14.07;82.13;99820.75;5012640;28;20030;-66
2021/08/21 05:48:13;;;;;;;3.63;2.67;;;;;;;14.09;82.28;99809.09;5003674;28;20061;-65
2021/08/21 05:50:39;;;;;;;8.98;3.63;;;;;;;14.13;81.67;99810.63;5014073;28;20050;-66
2021/08/21 05:53:04;;;;;;;5.85;3.60;;;;;;;14.12;82.11;99802.75;5016086;28;20116;-67
2021/08/21 05:55:30;;;;;;;5.72;3.55;;;;;;;14.13;81.90;99801.81;5015803;28;20038;-66
2021/08/21 05:57:55;;;;;;;6.00;3.85;;;;;;;14.15;82.24;99807.84;5013455;28;20026;-67
2021/08/21 06:00:20;;;;;;;6.03;2.92;;;;;;;14.22;82.37;99814.47;5014092;28;20052;-67
2021/08/21 06:02:46;;;;;;;8.05;2.90;;;;;;;14.27;81.89;99817.69;5013306;28;20036;-67
2021/08/21 06:05:12;;;;;;;7.97;3.28;;;;;;;14.31;82.23;99824.50;5012918;28;20482;-67
2021/08/21 06:07:38;;;;;;;4.50;3.47;;;;;;;14.39;81.80;99813.41;5007222;28;20529;-66
2021/08/21 06:10:05;;;;;;;5.63;3.47;;;;;;;14.45;81.89;99820.97;5012160;28;20504;-67
2021/08/21 06:12:31;;;;;;;5.20;3.10;;;;;;;14.56;82.00;99815.84;5012415;28;20038;-67
2021/08/21 06:14:56;;;;;;;6.13;3.72;;;;;;;14.68;81.72;99816.84;5012153;28;20181;-66
2021/08/21 06:17:22;;;;;;;5.18;3.42;;;;;;;14.79;81.68;99824.97;5012158;28;20060;-66
2021/08/21 06:19:47;;;;;;;4.20;3.50;;;;;;;14.92;81.62;99825.00;5012661;28;20057;-66
2021/08/21 06:22:13;;;;;;;5.97;3.47;;;;;;;15.00;81.26;99822.66;5004722;28;20038;-66
2021/08/21 06:24:40;;;;;;;7.05;3.40;;;;;;;15.12;81.30;99826.31;5012725;28;20125;-65
2021/08/21 06:27:06;;;;;;;6.32;3.28;;;;;;;15.28;81.22;99831.41;5012650;28;20120;-67
2021/08/21 06:29:35;;;;;;;5.55;3.10;;;;;;;15.44;80.45;99825.91;5013962;28;20125;-66
2021/08/21 06:32:04;;;;;;;4.53;3.45;;;;;;;15.57;80.20;99820.59;5012669;28;20468;-66
2021/08/21 06:34:30;;;;;;;4.18;3.13;;;;;;;15.78;79.47;99819.16;5012835;28;20087;-66
2021/08/21 06:36:57;;;;;;;5.53;2.55;;;;;;;15.97;78.92;99820.50;5011981;28;20472;-67
2021/08/21 06:39:23;;;;;;;4.20;2.90;;;;;;;16.08;78.70;99816.09;5012019;28;20046;-66
2021/08/21 06:41:48;;;;;;;4.22;3.03;;;;;;;16.21;78.48;99810.75;5011954;28;20478;-66
2021/08/21 06:44:13;;;;;;;4.00;2.67;;;;;;;16.35;77.65;99806.25;5010459;28;21962;-66
2021/08/21 06:46:38;;;;;;;3.35;2.60;;;;;;;16.50;77.64;99805.97;5010659;28;20038;-66
2021/08/21 06:49:04;;;;;;;4.57;2.72;;;;;;;16.62;77.00;99798.06;5011643;28;20053;-66
2021/08/21 06:51:29;;;;;;;6.88;2.75;;;;;;;16.77;76.58;99798.72;5011450;28;20045;-68
2021/08/21 06:53:54;;;;;;;4.22;2.60;;;;;;;16.89;76.32;99795.16;5010691;28;20033;-67
2021/08/21 06:56:20;;;;;;;5.13;3.40;;;;;;;17.03;76.32;99794.97;5011793;28;20112;-66
2021/08/21 06:58:45;;;;;;;4.43;3.08;;;;;;;17.15;75.56;99787.84;5011372;28;20363;-67
2021/08/21 07:01:11;;;;;;;7.40;2.70;;;;;;;17.30;75.19;99792.03;5011270;28;20068;-66
2021/08/21 07:03:36;;;;;;;4.50;2.67;;;;;;;17.45;74.53;99792.66;5010171;28;20034;-67
2021/08/21 07:06:02;;;;;;;10.38;3.20;;;;;;;17.62;74.18;99793.13;5011526;28;20044;-66
2021/08/21 07:08:28;;;;;;;3.80;2.92;;;;;;;17.78;73.59;99785.63;5010774;28;20089;-66
2021/08/21 07:10:53;;;;;;;4.30;2.55;;;;;;;17.96;73.33;99788.66;5011829;28;20029;-66
2021/08/21 07:13:18;;;;;;;4.05;2.90;;;;;;;18.06;72.13;99788.78;5011475;28;20057;-66
2021/08/21 07:15:43;;;;;;;37.63;7.63;;;;;;;18.21;72.08;99793.75;5011192;28;20067;-66
2021/08/21 07:18:09;;;;;;;33.80;7.20;;;;;;;18.33;71.76;99794.56;5010545;28;20044;-66
2021/08/21 07:20:34;;;;;;;8.80;3.00;;;;;;;18.46;71.41;99799.75;5010003;28;20431;-67
2021/08/21 07:22:59;;;;;;;16.23;5.68;;;;;;;18.60;70.62;99796.78;5011194;28;20034;-66
2021/08/21 07:25:25;;;;;;;7.43;2.65;;;;;;;18.70;70.67;99796.03;5011397;28;20034;-66
2021/08/21 07:27:50;;;;;;;5.53;2.70;;;;;;;18.82;69.83;99797.72;5010654;28;20088;-66
2021/08/21 07:30:15;;;;;;;7.82;2.67;;;;;;;18.95;70.11;99809.09;5010838;28;20041;-66
2021/08/21 07:32:41;;;;;;;31.60;4.28;;;;;;;19.12;70.28;99806.78;5007594;28;20065;-67
2021/08/21 07:35:06;;;;;;;5.57;3.45;;;;;;;19.25;69.89;99800.28;4990872;28;20440;-65
2021/08/21 07:37:34;;;;;;;5.38;2.55;;;;;;;19.39;68.36;99804.44;4990532;28;20457;-67
2021/08/21 07:39:59;;;;;;;3.28;2.20;;;;;;;19.50;68.80;99801.69;4990885;28;20454;-66
2021/08/21 07:42:25;;;;;;;3.58;2.55;;;;;;;19.61;68.04;99797.25;4990646;28;20049;-66
2021/08/21 07:44:50;;;;;;;2.95;2.42;;;;;;;19.73;67.45;99807.75;4991482;28;20509;-66
2021/08/21 07:47:16;;;;;;;7.30;2.50;;;;;;;19.89;66.29;99804.59;4988910;28;20038;-67
2021/08/21 07:49:41;;;;;;;4.15;2.40;;;;;;;20.01;66.38;99796.44;4990428;28;20046;-66
2021/08/21 07:52:06;;;;;;;2.25;1.67;;;;;;;20.14;65.38;99800.59;4990307;28;20093;-65
2021/08/21 07:54:32;;;;;;;3.33;1.92;;;;;;;20.19;64.13;99802.03;4991004;28;20038;-65
2021/08/21 07:56:57;;;;;;;2.60;1.90;;;;;;;20.28;64.38;99804.72;4990422;28;20555;-66
2021/08/21 07:59:22;;;;;;;3.58;2.00;;;;;;;20.52;63.33;99803.47;4991622;28;20542;-67
2021/08/21 08:01:48;;;;;;;2.92;2.17;;;;;;;20.70;63.10;99801.84;4990700;28;20030;-65
2021/08/21 08:04:14;;;;;;;3.88;2.65;;;;;;;20.86;62.72;99795.91;4990913;28;20062;-67
2021/08/21 08:06:40;;;;;;;4.15;2.15;;;;;;;21.02;63.01;99793.53;4987629;28;20509;-66
2021/08/21 08:09:05;;;;;;;6.97;2.30;;;;;;;21.12;61.82;99793.53;4989963;28;20038;-67
2021/08/21 08:11:34;;;;;;;2.67;2.00;;;;;;;21.26;61.20;99796.72;4974802;28;20045;-67
2021/08/21 08:13:59;;;;;;;2.40;1.80;;;;;;;21.38;60.79;99790.22;4997301;28;20388;-66
2021/08/21 08:16:24;;;;;;;3.35;2.00;;;;;;;21.50;59.64;99790.94;5009772;28;20034;-66
2021/08/21 08:18:50;;;;;;;3.47;2.13;;;;;;;21.55;60.63;99792.16;5009067;28;20038;-66
2021/08/21 08:21:18;;;;;;;5.75;1.98;;;;;;;21.67;59.33;99789.31;5009018;28;20054;-66
2021/08/21 08:23:44;;;;;;;12.93;2.38;;;;;;;21.79;58.50;99799.72;5010086;28;20065;-66
2021/08/21 08:26:10;;;;;;;2.58;2.05;;;;;;;21.87;58.38;99788.25;5009827;28;20034;-66
2021/08/21 08:28:35;;;;;;;6.95;1.88;;;;;;;21.98;58.22;99784.50;5009223;28;20049;-66
2021/08/21 08:31:00;;;;;;;15.23;2.20;;;;;;;22.09;58.49;99785.16;5009930;28;20124;-67
2021/08/21 08:33:26;;;;;;;8.98;2.00;;;;;;;22.17;58.33;99787.09;5009418;28;20049;-66
2021/08/21 08:35:51;;;;;;;4.57;1.88;;;;;;;22.19;58.31;99790.47;5009349;28;20037;-66
2021/08/21 08:38:20;;;;;;;4.22;1.50;;;;;;;22.23;59.20;99780.34;5008833;28;20053;-67
2021/08/21 08:40:49;;;;;;;2.55;1.88;;;;;;;22.37;56.39;99784.31;5009351;28;20449;-66
2021/08/21 08:43:15;;;;;;;4.68;1.83;;;;;;;22.32;56.38;99776.72;5007821;28;20034;-66
2021/08/21 08:45:41;;;;;;;2.90;2.00;;;;;;;22.40;56.96;99776.81;5009955;28;20037;-65
2021/08/21 08:48:07;;;;;;;2.38;1.30;;;;;;;22.63;55.81;99784.44;5008216;28;20053;-66
2021/08/21 08:50:34;;;;;;;2.78;1.85;;;;;;;22.75;55.28;99780.53;5007558;28;20438;-65
2021/08/21 08:53:00;;;;;;;2.15;1.52;;;;;;;22.90;54.82;99770.91;5009377;28;20441;-65
2021/08/21 08:55:25;;;;;;;3.92;1.70;;;;;;;23.03;54.54;99778.59;5009572;28;20038;-65
2021/08/21 08:57:53;;;;;;;2.97;1.98;;;;;;;23.08;54.48;99778.13;5009208;28;20395;-65
2021/08/21 09:00:23;;;;;;;3.53;2.08;;;;;;;23.21;54.58;99767.81;5008748;28;20038;-65
2021/08/21 09:02:54;;;;;;;2.72;2.13;;;;;;;23.30;53.47;99771.41;5009211;28;20022;-66
2021/08/21 09:05:22;;;;;;;2.58;1.90;;;;;;;23.39;53.41;99777.69;5007526;28;20041;-66
2021/08/21 09:07:52;;;;;;;2.78;1.63;;;;;;;23.31;53.00;99784.69;5008170;28;20072;-66
2021/08/21 09:10:29;;;;;;;4.13;2.60;;;;;;;23.44;53.10;99783.44;5009221;28;20042;-66
2021/08/21 09:13:12;;;;;;;2.55;1.83;;;;;;;23.60;52.18;99780.81;5009265;28;20045;-66
2021/08/21 09:15:41;;;;;;;2.60;2.00;;;;;;;23.74;52.42;99777.56;5008853;28;20410;-65
2021/08/21 09:18:13;;;;;;;5.40;2.13;;;;;;;23.87;51.75;99785.19;5010689;28;20516;-65
2021/08/21 09:20:47;;;;;;;4.78;2.10;;;;;;;23.94;51.65;99774.63;5011682;28;20030;-66
2021/08/21 09:23:19;;;;;;;4.27;1.83;;;;;;;24.11;50.67;99778.25;5013028;28;20038;-66
2021/08/21 09:25:46;;;;;;;1.75;1.48;;;;;;;24.40;50.81;99781.34;5012451;28;20034;-65
2021/08/21 09:28:16;;;;;;;2.28;1.50;;;;;;;24.75;49.32;99775.88;5012170;28;20030;-66
2021/08/21 09:30:41;;;;;;;2.95;1.63;;;;;;;24.72;46.52;99774.38;5012786;28;20113;-65
2021/08/21 09:33:07;;;;;;;2.47;1.60;;;;;;;24.59;46.44;99771.31;5012261;28;20149;-65
2021/08/21 09:35:33;;;;;;;3.13;1.42;;;;;;;24.76;46.66;99772.16;5011735;28;20080;-65
2021/08/21 09:38:00;;;;;;;3.47;2.00;;;;;;;25.53;44.86;99772.66;5011766;28;20338;-65
2021/08/21 09:40:34;;;;;;;1.75;1.45;;;;;;;25.36;44.87;99765.59;5013188;28;20060;-65
2021/08/21 09:43:02;;;;;;;2.50;1.42;;;;;;;25.44;45.01;99765.56;5009994;28;20065;-65
2021/08/21 09:45:28;;;;;;;2.10;1.55;;;;;;;25.31;45.71;99771.50;4993210;28;20088;-66
2021/08/21 09:47:59;;;;;;;5.43;1.50;;;;;;;25.60;45.10;99765.53;4992670;28;20097;-64
2021/08/21 09:50:24;;;;;;;2.55;1.60;;;;;;;26.15;44.13;99763.84;4959793;28;20401;-65
2021/08/21 09:52:50;;;;;;;4.30;2.13;;;;;;;27.15;42.00;99762.97;4992522;28;20037;-65
2021/08/21 09:55:20;;;;;;;1.90;1.50;;;;;;;27.61;39.78;99760.97;4993167;28;20038;-66
2021/08/21 09:58:15;;;;;;;2.75;1.58;;;;;;;27.34;41.26;99770.56;4992285;28;20037;-65
2021/08/21 10:00:42;;;;;;;1.65;1.20;;;;;;;26.53;42.17;99767.53;4991554;28;20107;-64
2021/08/21 10:03:07;;;;;;;3.42;1.77;;;;;;;26.48;42.19;99769.03;4992751;28;20486;-65
2021/08/21 10:05:33;;;;;;;2.40;1.40;;;;;;;26.75;40.82;99765.84;4993092;28;20035;-66
2021/08/21 10:08:11;;;;;;;2.10;1.40;;;;;;;26.35;41.91;99764.22;4991876;28;20491;-64
2021/08/21 10:10:38;;;;;;;3.30;1.48;;;;;;;26.06;43.07;99763.00;4992546;28;20417;-65
2021/08/21 10:13:10;;;;;;;2.13;1.67;;;;;;;27.32;39.89;99761.81;4992731;28;20089;-65
2021/08/21 10:15:38;;;;;;;2.22;1.70;;;;;;;28.07;38.22;99759.97;4992926;28;20049;-65
2021/08/21 10:18:04;;;;;;;2.65;1.83;;;;;;;28.13;38.12;99758.34;4992565;28;20026;-67
2021/08/21 10:20:29;;;;;;;2.35;1.85;;;;;;;28.36;37.30;99755.50;4992190;28;20038;-66
2021/08/21 10:22:55;;;;;;;5.18;1.77;;;;;;;28.83;36.81;99748.69;4992773;28;20052;-67
2021/08/21 10:25:25;;;;;;;2.95;1.40;;;;;;;29.53;36.07;99749.66;4992652;28;20438;-65
2021/08/21 10:27:58;;;;;;;1.73;1.45;;;;;;;29.69;34.97;99757.53;4990777;28;20109;-66
2021/08/21 10:30:39;;;;;;;2.47;1.77;;;;;;;29.87;33.51;99751.53;4992388;28;20065;-65
2021/08/21 10:33:05;;;;;;;2.28;1.40;;;;;;;29.78;34.55;99758.19;4972788;28;20038;-64
2021/08/21 10:35:45;;;;;;;1.92;1.50;;;;;;;29.30;35.14;99753.47;4971255;28;20031;-65
2021/08/21 10:38:30;;;;;;;2.45;1.52;;;;;;;29.39;34.71;99747.88;4980829;28;20046;-66
2021/08/21 10:40:56;;;;;;;;;;;;;;;29.78;34.06;99743.75;4977939;28;20035;-65
2021/08/21 10:43:40;;;;;;;2.00;1.42;;;;;;;30.13;33.24;99739.94;4995554;28;20009;-65
2021/08/21 10:46:05;;;;;;;2.67;1.93;;;;;;;30.55;33.19;99732.56;4999807;28;20502;-65
2021/08/21 10:48:52;;;;;;;5.43;2.00;;;;;;;30.92;32.04;99733.03;5010489;28;20288;-66
2021/08/21 10:51:45;;;;;;;1.98;1.38;;;;;;;30.74;32.45;99735.50;5011233;28;20517;-64
2021/08/21 10:54:26;;;;;;;1.92;1.42;;;;;;;29.99;34.28;99737.38;4989910;28;20042;-66
2021/08/21 10:56:56;;;;;;;2.50;1.30;;;;;;;29.17;34.93;99737.13;4991186;28;20490;-65
2021/08/21 10:59:44;;;;;;;1.67;1.40;;;;;;;27.70;37.16;99742.78;5011277;28;20121;-65
2021/08/21 11:02:31;;;;;;;6.45;1.77;;;;;;;27.41;38.61;99740.91;5010720;28;20060;-66
2021/08/21 11:05:00;;;;;;;53.55;3.50;;;;;;;27.54;38.92;99735.69;5010473;28;20040;-65
2021/08/21 11:07:37;;;;;;;2.95;2.03;;;;;;;27.16;39.88;99732.16;5010596;28;20633;-63
2021/08/21 11:10:22;;;;;;;4.03;2.03;;;;;;;27.04;41.00;99723.66;5010935;28;20052;-65
2021/08/21 11:12:50;;;;;;;;;;;;;;;27.09;40.79;99725.81;5011313;28;20034;-65
2021/08/21 11:15:31;;;;;;;2.00;1.63;;;;;;;27.01;40.62;99726.72;5011049;28;20336;-65
2021/08/21 11:17:57;;;;;;;2.80;1.67;;;;;;;26.99;40.80;99728.78;5010632;28;20042;-63
2021/08/21 11:20:28;;;;;;;2.40;1.65;;;;;;;26.90;39.44;99724.47;5013434;28;20045;-71
2021/08/21 11:23:05;;;;;;;4.72;1.73;;;;;;;26.75;39.86;99724.41;5014059;28;20113;-71
2021/08/21 11:25:32;;;;;;;6.38;2.00;;;;;;;26.66;39.78;99720.13;5017180;28;20092;-70
2021/08/21 11:28:07;;;;;;;1.70;1.48;;;;;;;26.70;40.21;99710.59;5015246;28;20037;-71
2021/08/21 11:30:35;;;;;;;1.67;1.35;;;;;;;26.67;39.83;99711.81;5015108;28;20030;-70
2021/08/21 11:33:02;;;;;;;2.40;1.80;;;;;;;26.55;40.41;99705.97;5013771;28;20096;-70
2021/08/21 11:35:36;;;;;;;5.72;5.00;;;;;;;26.40;40.88;99696.09;5013690;28;20068;-71